»·PEaware :: N717TS KSLC-KEGE

N717TS :: KSLC-KEGE

FLIGHT INFORMATION

Flight Status: Arrived
Operator: Privately registered:
United States
More flights under this callsign
Pilot: Ty S. (2873)
Aircraft: ECLIPSE 500
(EA50)
More flights by this aircraft type
Origin: KSLC Salt Lake City Intl
United States
Destination: KEGE Eagle Co Regl
United States
More flights between these airports :: More routes between these airports
Route: RUGGD1 EKR RLG
File this flight plan on PilotEdge
Remarks:
Altitude:
(Current/Filed)
25,000ft
Speed:
(Current/Filed)
350kts
Departed: 11-Jan-19 05:02 PM
Arrived: 11-Jan-19 05:59 PM
Distance/Time
Traveled:
242nm/0:57
Distance/Time
To Go:
Arrived

Flight Plot

Page will automatically refresh every two minutes.

Flight plan parsing failed; only flown route is shown


Map Options




Map Legend


Flown Route
Filed Route
Departure Airport
Arrival Airport
Navaid (VOR, NDB)
Fix

Horizontal Profiles

Position Reports

Time Latitude Longitude Heading Altitude Ground
Speed
11-Jan-19 16:13 40.775578 -111.958771 358 4230ft 0kts
11-Jan-19 16:13 40.775578 -111.958771 358 4230ft 0kts
11-Jan-19 16:14 40.775578 -111.958771 358 4230ft 0kts
11-Jan-19 16:15 40.775578 -111.958771 358 4230ft 0kts
11-Jan-19 16:16 40.775578 -111.958771 358 4230ft 0kts
11-Jan-19 16:17 40.775578 -111.958771 358 4230ft 0kts
11-Jan-19 16:18 40.775578 -111.958771 358 4230ft 0kts
11-Jan-19 16:19 40.775578 -111.958771 358 4230ft 0kts
11-Jan-19 16:20 40.775578 -111.958771 358 4230ft 0kts
11-Jan-19 16:21 40.775578 -111.958771 358 4230ft 0kts
11-Jan-19 16:22 40.775578 -111.958771 358 4230ft 0kts
11-Jan-19 16:23 40.775578 -111.958771 358 4230ft 0kts
11-Jan-19 16:24 40.775578 -111.958771 358 4230ft 0kts
11-Jan-19 16:25 40.775578 -111.958771 358 4230ft 0kts
11-Jan-19 16:26 40.775578 -111.958771 358 4230ft 0kts
11-Jan-19 16:27 40.775578 -111.958771 358 4230ft 0kts
11-Jan-19 16:28 40.775578 -111.958771 358 4230ft 0kts
11-Jan-19 16:29 40.775578 -111.958771 358 4230ft 0kts
11-Jan-19 16:30 40.775578 -111.958771 358 4230ft 0kts
11-Jan-19 16:31 40.775578 -111.958771 358 4230ft 0kts
11-Jan-19 16:32 40.775578 -111.958771 358 4230ft 0kts
11-Jan-19 16:33 40.775578 -111.958771 358 4230ft 0kts
11-Jan-19 16:34 40.775578 -111.958771 358 4230ft 0kts
11-Jan-19 16:35 40.775578 -111.958771 358 4230ft 0kts
11-Jan-19 16:36 40.775578 -111.958771 358 4230ft 0kts
11-Jan-19 16:37 40.775578 -111.958771 358 4230ft 0kts
11-Jan-19 16:38 40.775578 -111.958771 358 4230ft 0kts
11-Jan-19 16:39 40.775578 -111.958771 358 4230ft 0kts
11-Jan-19 16:40 40.775578 -111.958771 358 4230ft 0kts
11-Jan-19 16:41 40.775578 -111.958771 358 4230ft 0kts
11-Jan-19 16:42 40.775578 -111.958771 358 4230ft 0kts
11-Jan-19 16:43 40.775578 -111.958771 358 4230ft 0kts
11-Jan-19 16:44 40.775578 -111.958771 358 4230ft 0kts
11-Jan-19 16:45 40.775578 -111.958771 358 4230ft 0kts
11-Jan-19 16:46 40.775578 -111.958771 358 4230ft 0kts
11-Jan-19 16:47 40.775578 -111.958771 358 4230ft 0kts
11-Jan-19 16:48 40.775578 -111.958771 358 4230ft 0kts
11-Jan-19 16:49 40.775578 -111.958771 358 4230ft 0kts
11-Jan-19 16:50 40.775578 -111.958771 358 4230ft 0kts
11-Jan-19 16:51 40.775578 -111.958771 358 4230ft 0kts
11-Jan-19 16:52 40.775578 -111.958771 358 4230ft 0kts
11-Jan-19 16:53 40.775578 -111.958771 358 4230ft 0kts
11-Jan-19 16:54 40.775539 -111.958963 239 4230ft 3kts
11-Jan-19 16:55 40.774569 -111.960604 180 4230ft 16kts
11-Jan-19 16:56 40.772899 -111.960711 210 4230ft 4kts
11-Jan-19 16:57 40.772762 -111.960911 239 4230ft 0kts
11-Jan-19 16:58 40.772762 -111.960911 239 4230ft 0kts
11-Jan-19 16:59 40.772945 -111.962063 349 4230ft 5kts
11-Jan-19 17:00 40.773022 -111.962071 359 4230ft 0kts
11-Jan-19 17:01 40.792784 -111.962211 355 4663ft 135kts
11-Jan-19 17:02 40.844690 -111.965718 356 5945ft 233kts
11-Jan-19 17:03 40.911786 -111.972619 356 8455ft 248kts
11-Jan-19 17:04 40.981410 -111.980537 356 10821ft 256kts
11-Jan-19 17:05 41.052641 -111.980683 31 12913ft 263kts
11-Jan-19 17:06 41.051251 -111.889852 110 14731ft 285kts
11-Jan-19 17:07 41.005843 -111.801092 122 16322ft 298kts
11-Jan-19 17:08 40.956958 -111.710015 121 17738ft 308kts
11-Jan-19 17:09 40.907091 -111.616325 120 19044ft 316kts
11-Jan-19 17:10 40.855893 -111.520221 120 20189ft 324kts
11-Jan-19 17:11 40.803261 -111.421702 120 21197ft 332kts
11-Jan-19 17:12 40.772715 -111.308505 101 22113ft 330kts
11-Jan-19 17:13 40.746345 -111.191879 101 22957ft 335kts
11-Jan-19 17:14 40.719318 -111.073157 101 23723ft 340kts
11-Jan-19 17:15 40.691783 -110.952801 102 24433ft 344kts
11-Jan-19 17:16 40.663824 -110.831479 102 25094ft 348kts
11-Jan-19 17:17 40.635036 -110.707281 101 25294ft 363kts
11-Jan-19 17:18 40.604866 -110.577694 102 25299ft 377kts
11-Jan-19 17:19 40.573496 -110.443777 102 25231ft 387kts
11-Jan-19 17:20 40.541338 -110.307272 103 25210ft 393kts
11-Jan-19 17:21 40.514373 -110.168195 99 25210ft 393kts
11-Jan-19 17:22 40.488051 -110.028739 99 25210ft 395kts
11-Jan-19 17:23 40.461358 -109.888483 99 25209ft 396kts
11-Jan-19 17:24 40.435976 -109.756450 98 25206ft 345kts
11-Jan-19 17:25 40.412381 -109.633851 98 25211ft 346kts
11-Jan-19 17:26 40.388638 -109.511454 98 25210ft 346kts
11-Jan-19 17:27 40.364738 -109.389088 99 25210ft 346kts
11-Jan-19 17:28 40.341109 -109.268776 99 25210ft 346kts
11-Jan-19 17:29 40.316942 -109.146299 100 25210ft 347kts
11-Jan-19 17:30 40.292662 -109.024023 101 25210ft 347kts
11-Jan-19 17:31 40.268212 -108.901997 102 25210ft 347kts
11-Jan-19 17:32 40.243576 -108.779741 102 25210ft 347kts
11-Jan-19 17:33 40.218833 -108.657535 102 25211ft 347kts
11-Jan-19 17:34 40.193965 -108.535429 102 25211ft 347kts
11-Jan-19 17:35 40.169008 -108.413649 102 23999ft 334kts
11-Jan-19 17:36 40.153944 -108.300897 92 22578ft 342kts
11-Jan-19 17:37 40.144943 -108.169733 93 21094ft 368kts
11-Jan-19 17:38 40.135242 -108.039998 93 19601ft 353kts
11-Jan-19 17:39 40.125629 -107.914200 93 18109ft 345kts
11-Jan-19 17:40 40.116025 -107.790433 93 16613ft 339kts
11-Jan-19 17:41 40.106616 -107.671103 93 15999ft 314kts
11-Jan-19 17:42 40.097685 -107.558833 93 16002ft 322kts
11-Jan-19 17:43 40.081707 -107.439476 98 16001ft 344kts
11-Jan-19 17:44 40.064572 -107.323133 98 15999ft 314kts
11-Jan-19 17:45 40.045598 -107.217746 117 15917ft 296kts
11-Jan-19 17:46 40.003071 -107.113480 115 15019ft 336kts
11-Jan-19 17:47 39.961796 -107.005682 114 15027ft 330kts
11-Jan-19 17:48 39.921136 -106.898570 114 15028ft 329kts
11-Jan-19 17:49 39.880994 -106.793019 114 14263ft 322kts
11-Jan-19 17:50 39.842176 -106.691285 114 14025ft 308kts
11-Jan-19 17:51 39.790115 -106.610030 172 13987ft 308kts
11-Jan-19 17:52 39.709792 -106.637618 202 12467ft 295kts
11-Jan-19 17:53 39.673828 -106.718517 251 11172ft 221kts
11-Jan-19 17:54 39.661852 -106.772598 261 10436ft 130kts
11-Jan-19 17:55 39.654046 -106.818137 261 8845ft 129kts
11-Jan-19 17:57 39.648516 -106.862637 265 7402ft 119kts
11-Jan-19 17:58 39.644216 -106.902557 264 6582ft 107kts
11-Jan-19 17:59 39.641659 -106.922830 183 6548ft 4kts
11-Jan-19 18:00 39.641236 -106.919509 83 6548ft 16kts
11-Jan-19 18:01 39.642039 -106.912157 79 6548ft 20kts
11-Jan-19 18:02 39.641618 -106.909270 192 6548ft 10kts
11-Jan-19 18:03 39.641324 -106.909121 18 6548ft 0kts
11-Jan-19 18:04 39.641324 -106.909121 18 6548ft 0kts
11-Jan-19 18:05 39.641324 -106.909121 18 6548ft 0kts
11-Jan-19 18:06 39.641324 -106.909121 18 6548ft 0kts
11-Jan-19 18:07 39.641324 -106.909121 18 6548ft 0kts
11-Jan-19 18:08 39.641324 -106.909121 18 6548ft 0kts
11-Jan-19 18:09 39.641324 -106.909121 18 6548ft 0kts
11-Jan-19 18:10 39.641324 -106.909121 18 6548ft 0kts
11-Jan-19 18:11 39.641324 -106.909121 18 6548ft 0kts
11-Jan-19 18:12 39.641324 -106.909121 18 6548ft 0kts
11-Jan-19 18:13 39.641324 -106.909121 18 6548ft 0kts
11-Jan-19 18:14 39.641324 -106.909121 18 6548ft 0kts

Navigation Log

Ident Type
Flight plan parsing failed, navigation log unavailable